地図

経路データ

SID SEASON NUMBER BASIN SUBBASIN NAME ISO_TIME NATURE LAT LON WMO_WIND WMO_PRES WMO_AGENCY TRACK_TYPE DIST2LAND LANDFALL IFLAG USA_AGENCY USA_ATCF_ID USA_LAT USA_LON USA_RECORD USA_STATUS USA_WIND USA_PRES USA_SSHS USA_R34_NE USA_R34_SE USA_R34_SW USA_R34_NW USA_R50_NE USA_R50_SE USA_R50_SW USA_R50_NW USA_R64_NE USA_R64_SE USA_R64_SW USA_R64_NW USA_POCI USA_ROCI USA_RMW USA_EYE TOKYO_LAT TOKYO_LON TOKYO_GRADE TOKYO_WIND TOKYO_PRES TOKYO_R50_DIR TOKYO_R50_LONG TOKYO_R50_SHORT TOKYO_R30_DIR TOKYO_R30_LONG TOKYO_R30_SHORT TOKYO_LAND CMA_LAT CMA_LON CMA_CAT CMA_WIND CMA_PRES HKO_LAT HKO_LON HKO_CAT HKO_WIND HKO_PRES NEWDELHI_LAT NEWDELHI_LON NEWDELHI_GRADE NEWDELHI_WIND NEWDELHI_PRES NEWDELHI_CI NEWDELHI_DP NEWDELHI_POCI REUNION_LAT REUNION_LON REUNION_TYPE REUNION_WIND REUNION_PRES REUNION_TNUM REUNION_CI REUNION_RMW REUNION_R34_NE REUNION_R34_SE REUNION_R34_SW REUNION_R34_NW REUNION_R50_NE REUNION_R50_SE REUNION_R50_SW REUNION_R50_NW REUNION_R64_NE REUNION_R64_SE REUNION_R64_SW REUNION_R64_NW BOM_LAT BOM_LON BOM_TYPE BOM_WIND BOM_PRES BOM_TNUM BOM_CI BOM_RMW BOM_R34_NE BOM_R34_SE BOM_R34_SW BOM_R34_NW BOM_R50_NE BOM_R50_SE BOM_R50_SW BOM_R50_NW BOM_R64_NE BOM_R64_SE BOM_R64_SW BOM_R64_NW BOM_ROCI BOM_POCI BOM_EYE BOM_POS_METHOD BOM_PRES_METHOD NADI_LAT NADI_LON NADI_CAT NADI_WIND NADI_PRES WELLINGTON_LAT WELLINGTON_LON WELLINGTON_WIND WELLINGTON_PRES DS824_LAT DS824_LON DS824_STAGE DS824_WIND DS824_PRES TD9636_LAT TD9636_LON TD9636_STAGE TD9636_WIND TD9636_PRES TD9635_LAT TD9635_LON TD9635_WIND TD9635_PRES TD9635_ROCI NEUMANN_LAT NEUMANN_LON NEUMANN_CLASS NEUMANN_WIND NEUMANN_PRES MLC_LAT MLC_LON MLC_CLASS MLC_WIND MLC_PRES USA_GUST BOM_GUST BOM_GUST_PER REUNION_GUST REUNION_GUST_PER USA_SEAHGT USA_SEARAD_NE USA_SEARAD_SE USA_SEARAD_SW USA_SEARAD_NW STORM_SPEED STORM_DIR
1891248N12130 1891 28 WP MM NOT_NAMED 1891-09-04 16:00:00 NR 11.5000 130.100 main 472 437 __________O___ -1 11.5000 130.100 7 65 339
1891248N12130 1891 28 WP MM NOT_NAMED 1891-09-04 18:00:00 NR 13.5017 129.324 main 437 439 __________P___ -1 13.5017 129.324 7 63 339
1891248N12130 1891 28 WP MM NOT_NAMED 1891-09-04 21:00:00 NR 16.3613 128.189 main 494 492 __________P___ -1 16.3613 128.189 7 57 339
1891248N12130 1891 28 WP MM NOT_NAMED 1891-09-05 00:00:00 NR 18.8281 127.176 main 518 488 __________P___ -1 18.8281 127.176 7 47 338
1891248N12130 1891 28 WP MM NOT_NAMED 1891-09-05 03:00:00 NR 20.6659 126.392 main 500 497 __________P___ -1 20.6659 126.392 7 37 338
1891248N12130 1891 28 WP MM NOT_NAMED 1891-09-05 04:00:00 NR 21.1000 126.200 main 507 488 __________O___ -1 21.1000 126.200 7 22 337
1891248N12130 1891 28 WP MM NOT_NAMED 1891-09-05 06:00:00 NR 21.6779 125.935 main 488 468 __________P___ -1 21.6779 125.935 7 12 336
1891248N12130 1891 28 WP MM NOT_NAMED 1891-09-05 09:00:00 NR 21.9705 125.778 main 468 468 __________P___ -1 21.9705 125.778 7 2 322
1891248N12130 1891 28 WP MM NOT_NAMED 1891-09-05 12:00:00 NR 21.8365 125.801 main 474 474 __________P___ -1 21.8365 125.801 7 4 167
1891248N12130 1891 28 WP MM NOT_NAMED 1891-09-05 15:00:00 NR 21.5685 125.881 main 492 492 __________P___ -1 21.5685 125.881 7 5 166
1891248N12130 1891 28 WP MM NOT_NAMED 1891-09-05 16:00:00 NR 21.5000 125.900 main 496 482 __________O___ -1 21.5000 125.900 7 1 301
1891248N12130 1891 28 WP MM NOT_NAMED 1891-09-05 18:00:00 NR 21.5890 125.844 main 482 478 __________P___ -1 21.5890 125.844 7 3 331
1891248N12130 1891 28 WP MM NOT_NAMED 1891-09-05 21:00:00 NR 21.7413 125.754 main 478 461 __________P___ -1 21.7413 125.754 7 4 332
1891248N12130 1891 28 WP MM NOT_NAMED 1891-09-06 00:00:00 NR 21.9187 125.654 main 461 435 __________P___ -1 21.9187 125.654 7 4 333
1891248N12130 1891 28 WP MM NOT_NAMED 1891-09-06 03:00:00 NR 22.1245 125.541 main 435 432 __________P___ -1 22.1245 125.541 7 5 333
1891248N12130 1891 28 WP MM NOT_NAMED 1891-09-06 04:00:00 NR 22.2000 125.500 main 432 417 __________O___ -1 22.2000 125.500 3 5 332
1891248N12130 1891 28 WP MM NOT_NAMED 1891-09-06 06:00:00 NR 22.3605 125.406 main 417 403 __________P___ -1 22.3605 125.406 3 6 332
1891248N12130 1891 28 WP MM NOT_NAMED 1891-09-06 09:00:00 NR 22.6266 125.253 main 403 371 __________P___ -1 22.6266 125.253 3 6 332
1891248N12130 1891 28 WP MM NOT_NAMED 1891-09-06 12:00:00 NR 22.9117 125.095 main 371 337 __________P___ -1 22.9117 125.095 3 6 334
1891248N12130 1891 28 WP MM NOT_NAMED 1891-09-06 15:00:00 NR 23.2034 124.946 main 337 333 __________P___ -1 23.2034 124.946 3 6 335
1891248N12130 1891 28 WP MM NOT_NAMED 1891-09-06 16:00:00 NR 23.3000 124.900 main 333 314 __________O___ -1 23.3000 124.900 4 6 337
1891248N12130 1891 28 WP MM NOT_NAMED 1891-09-06 18:00:00 NR 23.4728 124.819 main 314 297 __________P___ -1 23.4728 124.819 4 6 338
1891248N12130 1891 28 WP MM NOT_NAMED 1891-09-06 21:00:00 NR 23.7318 124.710 main 297 279 __________P___ -1 23.7318 124.710 4 6 341
1891248N12130 1891 28 WP MM NOT_NAMED 1891-09-07 00:00:00 NR 24.0017 124.614 main 279 264 __________P___ -1 24.0017 124.614 4 6 343
1891248N12130 1891 28 WP MM NOT_NAMED 1891-09-07 03:00:00 NR 24.2949 124.527 main 264 261 __________P___ -1 24.2949 124.527 4 6 346
1891248N12130 1891 28 WP MM NOT_NAMED 1891-09-07 04:00:00 NR 24.4000 124.500 main 261 246 __________O___ -1 24.4000 124.500 4 7 345
1891248N12130 1891 28 WP MM NOT_NAMED 1891-09-07 06:00:00 NR 24.6350 124.434 main 246 231 __________P___ -1 24.6350 124.434 4 8 347
1891248N12130 1891 28 WP MM NOT_NAMED 1891-09-07 09:00:00 NR 25.0130 124.341 main 231 231 __________P___ -1 25.0130 124.341 4 8 349
1891248N12130 1891 28 WP MM NOT_NAMED 1891-09-07 12:00:00 NR 25.4020 124.263 main 235 228 __________P___ -1 25.4020 124.263 4 8 351
1891248N12130 1891 28 WP MM NOT_NAMED 1891-09-07 15:00:00 NR 25.7801 124.210 main 238 238 __________P___ -1 25.7801 124.210 4 8 354
1891248N12130 1891 28 WP MM NOT_NAMED 1891-09-07 16:00:00 NR 25.9000 124.200 main 242 242 __________O___ -1 25.9000 124.200 4 7 356
1891248N12130 1891 28 WP MM NOT_NAMED 1891-09-07 18:00:00 NR 26.1197 124.188 main 252 252 __________P___ -1 26.1197 124.188 4 6 358
1891248N12130 1891 28 WP MM NOT_NAMED 1891-09-07 21:00:00 NR 26.4304 124.196 main 270 270 __________P___ -1 26.4304 124.196 4 6 3
1891248N12130 1891 28 WP MM NOT_NAMED 1891-09-08 00:00:00 NR 26.7241 124.229 main 290 290 __________P___ -1 26.7241 124.229 4 6 7
1891248N12130 1891 28 WP MM NOT_NAMED 1891-09-08 03:00:00 NR 27.0070 124.280 main 302 297 __________P___ -1 27.0070 124.280 4 6 10
1891248N12130 1891 28 WP MM NOT_NAMED 1891-09-08 04:00:00 NR 27.1000 124.300 main 297 287 __________O___ -1 27.1000 124.300 4 5 8
1891248N12130 1891 28 WP MM NOT_NAMED 1891-09-08 06:00:00 NR 27.2759 124.326 main 287 283 __________P___ -1 27.2759 124.326 4 5 9
1891248N12130 1891 28 WP MM NOT_NAMED 1891-09-08 09:00:00 NR 27.5331 124.377 main 288 280 __________P___ -1 27.5331 124.377 4 5 12
1891248N12130 1891 28 WP MM NOT_NAMED 1891-09-08 12:00:00 NR 27.7991 124.451 main 289 272 __________P___ -1 27.7991 124.451 4 6 16
1891248N12130 1891 28 WP MM NOT_NAMED 1891-09-08 15:00:00 NR 28.0927 124.556 main 281 276 __________P___ -1 28.0927 124.556 4 6 18
1891248N12130 1891 28 WP MM NOT_NAMED 1891-09-08 16:00:00 NR 28.2000 124.600 main 276 272 __________O___ -1 28.2000 124.600 4 7 21
1891248N12130 1891 28 WP MM NOT_NAMED 1891-09-08 18:00:00 NR 28.4312 124.702 main 277 274 __________P___ -1 28.4312 124.702 4 8 22
1891248N12130 1891 28 WP MM NOT_NAMED 1891-09-08 21:00:00 NR 28.8132 124.885 main 285 283 __________P___ -1 28.8132 124.885 4 9 23
1891248N12130 1891 28 WP MM NOT_NAMED 1891-09-09 00:00:00 NR 29.2257 125.096 main 300 300 __________P___ -1 29.2257 125.096 4 9 24
1891248N12130 1891 28 WP MM NOT_NAMED 1891-09-09 03:00:00 NR 29.6553 125.323 main 323 323 __________P___ -1 29.6553 125.323 4 10 25
1891248N12130 1891 28 WP MM NOT_NAMED 1891-09-09 04:00:00 NR 29.8000 125.400 main 335 __________O___ -1 29.8000 125.400 7 10 24

デジタル台風データ・検索

IBTrACS Databaseについて

本データベースは、米国NOAAが公開する1842年以降の世界の熱帯低気圧のベストトラックデータアーカイブInternational Best Track Archive for Climate Stewardship (IBTrACS)を、ウェブで閲覧しやすい形式に変換したものです。

最終更新日:2021-10-19